Strona główna
METAR-TAF:

METAR-TAF

Lotnisko :

Wittering, Anglia

Szerokość geograficzna: 52-37N, Długość geograficzna: 000-28W, wysokość: 84 m

Aktualna obserwacja pogody

Raport powstał 37 minut temu, godzina 08:50 UTC
Wiatr 9 kt od północny zachód
Temperatura 10°C
Wilgotność 71%
Ciśnienie 1003 hPa
Widzialność 10 km lub więcej
Mało chmury na wysokości 2000 ft
Przerywane chmury na wysokości 14000 ft

METAR: EGXT 040850Z 32009KT 9999 FEW020 BKN140 10/05 Q1003 RMK BLU

czas: 10:27 (09:27 UTC)

Prognoza

Raport powstał 1 godzina i 33 minut temu, godzina 07:54 UTC
Prognoza ważna od 04 godzina 09 UTC do 04 godzina 18 UTC
Wiatr 10 kt od północny zachód
Widzialność 10 km lub więcej
Rozproszone chmury na wysokości 2700 ft
Prawdopodobieństwo 30% :
Przejściowo
od 04 godzina 09 UTC do 04 godzina 10 UTC
Rozproszone chmury na wysokości 2200 ft

TAF: EGXT 040754Z 0409/0418 31010KT 9999 SCT027 PROB30 TEMPO 0409/0410 SCT022

Obserwacja i prognoza pogody dla ponad 4000 lotnisk (raport METAR i TAF).

Dostępne stacje oznaczono żółtymi i czerwonymi punktami na mapie.

Najedź kursorem aby zobaczyć nazwę stacji.

Kliknij aby zobaczyć obserwacje i prognozy pogody.

Aby zmienić mapę: kliknij na zielony przycisk z czarnym krzyżykiem, aby powiększyć; na zielony przycisk z myślnikiem, aby pomniejszyć; na zielone strzałki, aby przejść do map sąsiednich.


METAR-TAF: